Time;durP1;ratioP1;P1;durP2;ratioP2;P2;SDS_P1;SDS_P2;PMS_P1;PMS_P2;Temp;Humidity;BMP_temperature;BMP_pressure;BME280_temperature;BME280_humidity;BME280_pressure;Samples;Min_cycle;Max_cycle;Signal;HPM_P1;HPM_P2
2021/12/22 00:02:06;;;;;;;15.45;9.38;;;;;;;;;;5092803;28;20040;-59
2021/12/22 00:04:37;;;;;;;17.80;9.40;;;;;;;;;;5093087;28;20042;-60
2021/12/22 00:07:03;;;;;;;14.57;9.20;;;;;;;;;;5090636;28;20040;-60
2021/12/22 00:09:29;;;;;;;14.98;8.93;;;;;;;;;;5092732;28;20140;-60
2021/12/22 00:11:55;;;;;;;17.98;10.10;;;;;;;;;;5092842;28;20063;-60
2021/12/22 00:14:21;;;;;;;13.40;8.95;;;;;;;;;;5092697;28;20063;-60
2021/12/22 00:16:47;;;;;;;16.40;10.18;;;;;;;;;;5092525;28;20047;-59
2021/12/22 00:19:13;;;;;;;14.35;9.00;;;;;;;;;;5092446;28;20040;-60
2021/12/22 00:21:39;;;;;;;17.52;8.95;;;;;;;;;;5091205;28;20059;-60
2021/12/22 00:24:05;;;;;;;17.67;9.10;;;;;;;;;;5092442;28;20082;-59
2021/12/22 00:26:31;;;;;;;18.73;8.80;;;;;;;;;;5092757;28;20032;-60
2021/12/22 00:28:57;;;;;;;22.05;10.35;;;;;;;;;;5092306;28;20402;-59
2021/12/22 00:31:23;;;;;;;19.15;9.32;;;;;;;;;;5092366;28;20044;-59
2021/12/22 00:33:52;;;;;;;15.20;9.30;;;;;;;;;;5092508;28;20040;-59
2021/12/22 00:36:22;;;;;;;18.02;8.80;;;;;;;;;;5092185;28;20554;-60
2021/12/22 00:38:48;;;;;;;16.08;8.43;;;;;;;;;;5091043;28;20051;-60
2021/12/22 00:41:15;;;;;;;18.50;8.82;;;;;;;;;;5092264;28;20165;-60
2021/12/22 00:43:41;;;;;;;15.00;8.75;;;;;;;;;;5092343;28;20055;-60
2021/12/22 00:46:07;;;;;;;16.40;9.27;;;;;;;;;;5091956;28;20170;-60
2021/12/22 00:48:33;;;;;;;16.73;9.32;;;;;;;;;;5091597;28;20146;-59
2021/12/22 00:51:00;;;;;;;16.40;9.45;;;;;;;;;;5091254;28;20036;-60
2021/12/22 00:53:26;;;;;;;17.38;9.50;;;;;;;;;;5091787;28;20044;-58
2021/12/22 00:55:52;;;;;;;15.15;9.38;;;;;;;;;;5092211;28;20185;-59
2021/12/22 00:58:20;;;;;;;19.40;9.90;;;;;;;;;;5091687;28;20043;-60
2021/12/22 01:00:47;;;;;;;13.60;7.97;;;;;;;;;;5091452;28;20171;-58
2021/12/22 01:03:17;;;;;;;15.70;9.10;;;;;;;;;;5091427;28;20044;-61
2021/12/22 01:05:44;;;;;;;16.23;9.10;;;;;;;;;;5092192;28;20028;-59
2021/12/22 01:08:10;;;;;;;15.52;8.77;;;;;;;;;;5091612;28;20048;-59
2021/12/22 01:10:36;;;;;;;13.73;9.18;;;;;;;;;;5091119;28;20063;-60
2021/12/22 01:13:05;;;;;;;17.25;9.73;;;;;;;;;;5091888;28;20027;-59
2021/12/22 01:15:31;;;;;;;15.32;8.65;;;;;;;;;;5090354;28;20043;-59
2021/12/22 01:18:07;;;;;;;15.85;9.15;;;;;;;;;;5090407;28;20032;-59
2021/12/22 01:20:40;;;;;;;18.00;9.32;;;;;;;;;;5091119;28;20097;-59
2021/12/22 01:23:07;;;;;;;16.73;9.70;;;;;;;;;;5091524;28;20048;-61
2021/12/22 01:25:37;;;;;;;13.98;9.38;;;;;;;;;;5090275;28;20048;-59
2021/12/22 01:28:03;;;;;;;17.90;9.40;;;;;;;;;;5091459;28;20115;-58
2021/12/22 01:30:31;;;;;;;14.23;9.05;;;;;;;;;;5091264;28;20391;-59
2021/12/22 01:32:58;;;;;;;15.98;9.05;;;;;;;;;;5089936;28;20043;-59
2021/12/22 01:35:25;;;;;;;15.48;9.55;;;;;;;;;;5091094;28;20440;-59
2021/12/22 01:37:52;;;;;;;14.75;9.32;;;;;;;;;;5091289;28;20107;-59
2021/12/22 01:40:21;;;;;;;14.32;8.45;;;;;;;;;;5091719;28;20111;-60
2021/12/22 01:42:48;;;;;;;14.95;9.38;;;;;;;;;;5091046;28;20043;-60
2021/12/22 01:45:51;;;;;;;16.55;8.20;;;;;;;;;;5091235;28;20036;-59
2021/12/22 01:51:17;;;;;;;15.30;9.52;;;;;;;;;;5068550;28;20198;-59
2021/12/22 01:53:45;;;;;;;16.52;9.55;;;;;;;;;;5067760;28;20379;-58
2021/12/22 01:56:21;;;;;;;15.43;8.68;;;;;;;;;;5068652;28;20566;-59
2021/12/22 01:58:48;;;;;;;17.42;9.10;;;;;;;;;;5068574;28;20352;-59
2021/12/22 02:01:15;;;;;;;15.23;9.48;;;;;;;;;;5068709;28;20041;-59
2021/12/22 02:03:42;;;;;;;17.08;9.43;;;;;;;;;;5067570;28;20032;-60
2021/12/22 02:06:08;;;;;;;14.55;9.18;;;;;;;;;;5068403;28;20060;-59
2021/12/22 02:08:35;;;;;;;14.98;9.20;;;;;;;;;;5067840;28;20095;-60
2021/12/22 02:11:02;;;;;;;15.73;9.20;;;;;;;;;;5067994;28;20032;-61
2021/12/22 02:13:33;;;;;;;17.02;8.90;;;;;;;;;;5067896;28;20036;-59
2021/12/22 02:16:06;;;;;;;18.02;9.75;;;;;;;;;;5067357;28;20138;-59
2021/12/22 02:18:34;;;;;;;15.75;9.45;;;;;;;;;;5068020;28;20045;-59
2021/12/22 02:21:00;;;;;;;16.27;9.85;;;;;;;;;;5068125;28;20048;-59
2021/12/22 02:23:26;;;;;;;17.77;9.70;;;;;;;;;;5051425;28;20057;-59
2021/12/22 02:25:57;;;;;;;21.52;10.60;;;;;;;;;;5069721;28;20155;-59
2021/12/22 02:28:28;;;;;;;18.83;9.80;;;;;;;;;;5090752;28;20040;-59
2021/12/22 02:30:54;;;;;;;20.63;10.65;;;;;;;;;;5089853;28;20128;-60
2021/12/22 02:33:23;;;;;;;19.15;10.68;;;;;;;;;;5090622;28;20043;-60
2021/12/22 02:38:30;;;;;;;19.60;10.63;;;;;;;;;;5090539;28;20044;-59
2021/12/22 02:40:56;;;;;;;18.80;10.90;;;;;;;;;;5090309;28;20044;-60
2021/12/22 02:43:23;;;;;;;19.63;10.88;;;;;;;;;;5090337;28;20048;-60
2021/12/22 02:45:49;;;;;;;18.67;10.85;;;;;;;;;;5088939;28;20089;-60
2021/12/22 02:48:15;;;;;;;16.90;10.77;;;;;;;;;;5090715;28;20036;-58
2021/12/22 02:50:41;;;;;;;20.42;11.13;;;;;;;;;;5090175;28;20479;-58
2021/12/22 02:53:12;;;;;;;18.48;10.38;;;;;;;;;;5090234;28;20043;-59
2021/12/22 02:55:51;;;;;;;21.00;11.77;;;;;;;;;;5090263;28;20054;-59
2021/12/22 02:58:32;;;;;;;19.88;10.50;;;;;;;;;;5090140;28;20180;-59
2021/12/22 03:01:09;;;;;;;18.02;10.40;;;;;;;;;;5090243;28;20051;-60
2021/12/22 03:09:16;;;;;;;17.58;10.82;;;;;;;;;;5021293;28;20520;-59
2021/12/22 03:11:43;;;;;;;18.75;9.88;;;;;;;;;;5027667;28;20045;-59
2021/12/22 03:14:09;;;;;;;18.60;11.27;;;;;;;;;;5027562;28;20041;-59
2021/12/22 03:16:35;;;;;;;17.98;10.95;;;;;;;;;;5027771;28;20059;-59
2021/12/22 03:19:01;;;;;;;18.33;10.57;;;;;;;;;;5026890;28;20172;-59
2021/12/22 03:21:27;;;;;;;18.48;10.85;;;;;;;;;;5027731;28;20091;-60
2021/12/22 03:23:54;;;;;;;18.38;11.93;;;;;;;;;;5029947;28;20041;-60
2021/12/22 03:26:22;;;;;;;16.48;10.10;;;;;;;;;;5030980;28;20053;-59
2021/12/22 03:28:48;;;;;;;18.08;10.50;;;;;;;;;;5031385;28;20041;-60
2021/12/22 03:31:15;;;;;;;16.73;10.18;;;;;;;;;;5031022;28;20474;-59
2021/12/22 03:33:42;;;;;;;19.08;11.10;;;;;;;;;;5031228;28;20474;-59
2021/12/22 03:36:08;;;;;;;18.83;10.68;;;;;;;;;;5030424;28;20044;-59
2021/12/22 03:38:36;;;;;;;19.13;10.80;;;;;;;;;;5031025;28;20045;-59
2021/12/22 03:41:02;;;;;;;19.08;10.75;;;;;;;;;;5014469;28;20331;-59
2021/12/22 03:43:28;;;;;;;19.83;11.25;;;;;;;;;;5030908;28;20404;-60
2021/12/22 03:45:54;;;;;;;18.55;10.73;;;;;;;;;;5058460;28;20044;-59
2021/12/22 03:48:21;;;;;;;19.23;11.18;;;;;;;;;;5090918;28;20119;-60
2021/12/22 03:50:48;;;;;;;19.55;11.10;;;;;;;;;;5093363;28;20067;-60
2021/12/22 03:53:14;;;;;;;20.60;11.43;;;;;;;;;;5093101;28;20048;-59
2021/12/22 03:55:40;;;;;;;21.73;11.20;;;;;;;;;;5093204;28;20399;-59
2021/12/22 03:58:06;;;;;;;20.95;10.50;;;;;;;;;;5090963;28;20044;-60
2021/12/22 04:00:33;;;;;;;16.88;10.65;;;;;;;;;;5093267;28;20499;-60
2021/12/22 04:03:00;;;;;;;19.55;10.90;;;;;;;;;;5093076;28;20039;-60
2021/12/22 04:05:26;;;;;;;18.95;10.82;;;;;;;;;;5093018;28;20084;-59
2021/12/22 04:07:54;;;;;;;17.38;10.95;;;;;;;;;;5092211;28;20048;-60
2021/12/22 04:10:22;;;;;;;20.33;10.90;;;;;;;;;;5092791;28;20044;-59
2021/12/22 04:12:49;;;;;;;16.95;10.65;;;;;;;;;;5092880;28;20032;-60
2021/12/22 04:15:15;;;;;;;17.10;9.90;;;;;;;;;;5092581;28;20510;-59
2021/12/22 04:17:41;;;;;;;19.67;10.55;;;;;;;;;;5092882;28;20054;-60
2021/12/22 04:20:07;;;;;;;18.13;11.02;;;;;;;;;;5092059;28;20040;-59
2021/12/22 04:22:33;;;;;;;18.23;10.25;;;;;;;;;;5092881;28;20076;-59
2021/12/22 04:25:00;;;;;;;18.73;10.80;;;;;;;;;;5092595;28;20109;-60
2021/12/22 04:27:25;;;;;;;17.10;9.90;;;;;;;;;;5092444;28;20044;-58
2021/12/22 04:29:51;;;;;;;18.23;10.73;;;;;;;;;;5092087;28;20101;-59
2021/12/22 04:32:17;;;;;;;18.73;10.57;;;;;;;;;;5092567;28;20069;-59
2021/12/22 04:34:43;;;;;;;15.57;9.90;;;;;;;;;;5092235;28;20047;-59
2021/12/22 04:37:09;;;;;;;17.52;9.85;;;;;;;;;;5092202;28;20552;-60
2021/12/22 04:39:35;;;;;;;18.40;9.77;;;;;;;;;;5092233;28;20055;-58
2021/12/22 04:42:01;;;;;;;15.02;9.75;;;;;;;;;;5092067;28;20086;-59
2021/12/22 04:44:28;;;;;;;14.98;9.63;;;;;;;;;;5091916;28;20032;-59
2021/12/22 04:46:54;;;;;;;18.20;10.50;;;;;;;;;;5092401;28;20039;-59
2021/12/22 04:49:20;;;;;;;15.48;9.07;;;;;;;;;;5091959;28;20036;-59
2021/12/22 04:51:51;;;;;;;21.33;10.88;;;;;;;;;;5091664;28;20042;-59
2021/12/22 04:56:52;;;;;;;19.33;10.45;;;;;;;;;;5091988;28;20158;-59
2021/12/22 04:59:18;;;;;;;17.50;10.43;;;;;;;;;;5091870;28;20081;-59
2021/12/22 05:01:44;;;;;;;20.92;10.70;;;;;;;;;;5091604;28;20040;-60
2021/12/22 05:04:10;;;;;;;20.08;10.05;;;;;;;;;;5091648;28;20036;-61
2021/12/22 05:06:36;;;;;;;17.13;10.10;;;;;;;;;;5091605;28;20047;-59
2021/12/22 05:09:03;;;;;;;20.33;11.00;;;;;;;;;;5091488;28;20127;-60
2021/12/22 05:11:29;;;;;;;19.05;10.80;;;;;;;;;;5091174;28;20089;-59
2021/12/22 05:13:55;;;;;;;17.60;10.15;;;;;;;;;;5091405;28;20040;-59
2021/12/22 05:16:21;;;;;;;19.02;11.27;;;;;;;;;;5091471;28;20039;-59
2021/12/22 05:21:18;;;;;;;19.70;11.02;;;;;;;;;;5091426;28;20093;-60
2021/12/22 05:23:44;;;;;;;20.40;11.18;;;;;;;;;;5090657;28;20039;-60
2021/12/22 05:26:10;;;;;;;22.35;11.52;;;;;;;;;;5091497;28;20067;-59
2021/12/22 05:28:36;;;;;;;22.83;11.73;;;;;;;;;;5091141;28;20704;-59
2021/12/22 05:31:02;;;;;;;22.33;11.55;;;;;;;;;;5091456;28;20036;-59
2021/12/22 05:33:28;;;;;;;22.15;11.45;;;;;;;;;;5090737;28;20040;-59
2021/12/22 05:35:54;;;;;;;19.77;10.88;;;;;;;;;;5090157;28;20040;-59
2021/12/22 05:38:20;;;;;;;18.42;10.75;;;;;;;;;;5091340;28;20032;-59
2021/12/22 05:40:46;;;;;;;17.05;10.43;;;;;;;;;;5089814;28;20062;-59
2021/12/22 05:43:12;;;;;;;23.27;11.38;;;;;;;;;;5091134;28;20055;-59
2021/12/22 05:45:38;;;;;;;20.15;11.88;;;;;;;;;;5089768;28;20047;-60
2021/12/22 05:48:05;;;;;;;20.92;11.05;;;;;;;;;;5091208;28;20036;-60
2021/12/22 05:50:31;;;;;;;23.25;12.00;;;;;;;;;;5090841;28;20046;-60
2021/12/22 05:52:57;;;;;;;23.13;11.00;;;;;;;;;;5091044;28;20051;-59
2021/12/22 05:55:23;;;;;;;21.38;11.05;;;;;;;;;;5090880;28;20167;-61
2021/12/22 05:57:49;;;;;;;22.40;10.65;;;;;;;;;;5090926;28;20047;-60
2021/12/22 06:00:15;;;;;;;18.08;10.48;;;;;;;;;;5091172;28;20036;-59
2021/12/22 06:02:41;;;;;;;21.60;11.75;;;;;;;;;;5090638;28;20047;-59
2021/12/22 06:05:09;;;;;;;19.73;10.38;;;;;;;;;;5090469;28;20071;-60
2021/12/22 06:07:35;;;;;;;20.27;10.38;;;;;;;;;;5090363;28;20499;-59
2021/12/22 06:10:01;;;;;;;20.33;10.90;;;;;;;;;;5091025;28;20066;-59
2021/12/22 06:12:27;;;;;;;20.50;10.88;;;;;;;;;;5090875;28;20115;-59
2021/12/22 06:14:53;;;;;;;17.40;10.32;;;;;;;;;;5090581;28;20111;-59
2021/12/22 06:17:19;;;;;;;17.77;10.25;;;;;;;;;;5090642;28;20123;-59
2021/12/22 06:19:45;;;;;;;20.75;10.10;;;;;;;;;;5090499;28;20040;-58
2021/12/22 06:22:11;;;;;;;19.90;10.88;;;;;;;;;;5090746;28;20105;-59
2021/12/22 06:24:37;;;;;;;24.15;9.93;;;;;;;;;;5090438;28;20044;-59
2021/12/22 06:27:03;;;;;;;18.52;10.00;;;;;;;;;;5090264;28;20397;-59
2021/12/22 06:29:29;;;;;;;16.77;10.05;;;;;;;;;;5090545;28;20032;-59
2021/12/22 06:31:55;;;;;;;19.40;9.93;;;;;;;;;;5090411;28;20036;-61
2021/12/22 06:34:21;;;;;;;20.75;10.88;;;;;;;;;;5090809;28;20466;-59
2021/12/22 06:36:47;;;;;;;19.70;10.75;;;;;;;;;;5089951;28;20374;-59
2021/12/22 06:39:14;;;;;;;19.30;10.10;;;;;;;;;;5090409;28;20050;-59
2021/12/22 06:41:40;;;;;;;19.67;10.43;;;;;;;;;;5090434;28;20043;-60
2021/12/22 06:44:06;;;;;;;18.00;9.95;;;;;;;;;;5090231;28;20123;-59
2021/12/22 06:46:33;;;;;;;18.85;10.25;;;;;;;;;;5090512;28;20044;-59
2021/12/22 06:48:59;;;;;;;18.83;10.55;;;;;;;;;;5088441;28;20036;-60
2021/12/22 06:51:25;;;;;;;19.83;10.50;;;;;;;;;;5090574;28;20036;-59
2021/12/22 06:53:51;;;;;;;19.83;10.65;;;;;;;;;;5090419;28;20047;-59
2021/12/22 06:56:17;;;;;;;20.95;10.07;;;;;;;;;;5090731;28;20081;-59
2021/12/22 06:58:43;;;;;;;24.33;10.55;;;;;;;;;;5093911;28;20486;-59
2021/12/22 07:01:12;;;;;;;21.55;10.88;;;;;;;;;;5094099;28;20086;-59
2021/12/22 07:03:38;;;;;;;19.83;10.50;;;;;;;;;;5094059;28;20052;-58
2021/12/22 07:06:04;;;;;;;19.23;10.30;;;;;;;;;;5094039;28;20115;-59
2021/12/22 07:08:30;;;;;;;21.83;10.82;;;;;;;;;;5094183;28;20572;-60
2021/12/22 07:10:56;;;;;;;18.67;10.57;;;;;;;;;;5093464;28;20119;-60
2021/12/22 07:13:22;;;;;;;18.27;10.98;;;;;;;;;;5094295;28;20040;-59
2021/12/22 07:15:48;;;;;;;19.27;9.65;;;;;;;;;;5094002;28;20457;-59
2021/12/22 07:18:14;;;;;;;18.65;10.90;;;;;;;;;;5092752;28;20114;-59
2021/12/22 07:20:40;;;;;;;18.92;10.70;;;;;;;;;;5093589;28;20127;-59
2021/12/22 07:23:06;;;;;;;23.92;10.73;;;;;;;;;;5093161;28;20040;-59
2021/12/22 07:25:32;;;;;;;20.08;10.05;;;;;;;;;;5093659;28;20452;-60
2021/12/22 07:27:58;;;;;;;17.88;10.52;;;;;;;;;;5092129;28;20539;-61
2021/12/22 07:30:25;;;;;;;19.38;10.48;;;;;;;;;;5093196;28;20036;-60
2021/12/22 07:32:51;;;;;;;23.40;11.45;;;;;;;;;;5093093;28;20036;-60
2021/12/22 07:35:25;;;;;;;19.25;10.57;;;;;;;;;;5092970;28;20486;-59
2021/12/22 07:37:57;;;;;;;19.65;10.60;;;;;;;;;;5095043;28;20060;-60
2021/12/22 07:40:23;;;;;;;21.33;11.18;;;;;;;;;;5093300;28;20068;-60
2021/12/22 07:42:49;;;;;;;17.58;10.65;;;;;;;;;;5092954;28;20036;-60
2021/12/22 07:45:15;;;;;;;18.85;11.00;;;;;;;;;;5092425;28;20043;-60
2021/12/22 07:47:41;;;;;;;21.98;10.43;;;;;;;;;;5091344;28;20040;-60
2021/12/22 07:50:08;;;;;;;19.83;10.15;;;;;;;;;;5092764;28;20039;-60
2021/12/22 07:52:35;;;;;;;22.25;10.77;;;;;;;;;;5091560;28;20047;-60
2021/12/22 07:55:01;;;;;;;19.25;10.38;;;;;;;;;;5092753;28;20040;-60
2021/12/22 07:57:27;;;;;;;18.70;10.52;;;;;;;;;;5092381;28;20043;-60
2021/12/22 07:59:53;;;;;;;19.15;10.25;;;;;;;;;;5091973;28;20051;-61
2021/12/22 08:02:19;;;;;;;20.80;10.23;;;;;;;;;;5090862;28;20036;-59
2021/12/22 08:04:45;;;;;;;19.85;10.38;;;;;;;;;;5092856;28;20088;-60
2021/12/22 08:07:11;;;;;;;17.98;10.23;;;;;;;;;;5091899;28;20502;-59
2021/12/22 08:09:37;;;;;;;19.30;9.73;;;;;;;;;;5090472;28;20413;-61
2021/12/22 08:12:07;;;;;;;16.50;9.55;;;;;;;;;;5092409;28;20165;-60
2021/12/22 08:14:33;;;;;;;19.23;10.48;;;;;;;;;;5091789;28;20043;-60
2021/12/22 08:16:59;;;;;;;19.17;10.27;;;;;;;;;;5091861;28;20101;-59
2021/12/22 08:19:25;;;;;;;19.35;9.65;;;;;;;;;;5091554;28;20086;-60
2021/12/22 08:21:51;;;;;;;19.02;9.88;;;;;;;;;;5092347;28;20109;-59
2021/12/22 08:24:17;;;;;;;19.13;9.85;;;;;;;;;;5091673;28;20044;-60
2021/12/22 08:26:43;;;;;;;17.02;9.65;;;;;;;;;;5091800;28;20501;-60
2021/12/22 08:29:10;;;;;;;18.25;10.32;;;;;;;;;;5090633;28;20052;-59
2021/12/22 08:31:36;;;;;;;17.33;9.15;;;;;;;;;;5091702;28;20047;-60
2021/12/22 08:34:03;;;;;;;22.27;11.18;;;;;;;;;;5091813;28;20119;-59
2021/12/22 08:39:14;;;;;;;18.27;8.75;;;;;;;;;;5089225;28;20123;-61
2021/12/22 08:41:40;;;;;;;23.90;9.38;;;;;;;;;;5091580;28;20028;-61
2021/12/22 08:44:11;;;;;;;17.13;9.68;;;;;;;;;;5092882;28;20063;-59
2021/12/22 08:46:39;;;;;;;18.65;9.48;;;;;;;;;;5090293;28;20032;-60
2021/12/22 08:49:06;;;;;;;20.58;9.75;;;;;;;;;;5092994;28;20036;-60
2021/12/22 08:51:32;;;;;;;18.67;9.48;;;;;;;;;;5092021;28;20044;-60
2021/12/22 08:54:00;;;;;;;17.73;9.80;;;;;;;;;;5089687;28;20405;-61
2021/12/22 08:56:26;;;;;;;17.92;9.45;;;;;;;;;;5091856;28;20387;-59
2021/12/22 08:58:54;;;;;;;17.55;8.90;;;;;;;;;;5090608;28;20501;-60
2021/12/22 09:01:20;;;;;;;19.08;9.25;;;;;;;;;;5091872;28;20046;-60
2021/12/22 09:03:46;;;;;;;14.70;8.88;;;;;;;;;;5091288;28;20394;-60
2021/12/22 09:06:12;;;;;;;19.55;9.45;;;;;;;;;;5091472;28;20043;-60
2021/12/22 09:08:38;;;;;;;17.92;9.52;;;;;;;;;;5091224;28;20052;-60
2021/12/22 09:11:04;;;;;;;15.80;8.70;;;;;;;;;;5091829;28;20583;-60
2021/12/22 09:13:30;;;;;;;15.80;9.18;;;;;;;;;;5091609;28;20389;-60
2021/12/22 09:15:56;;;;;;;18.80;9.32;;;;;;;;;;5090656;28;20043;-59
2021/12/22 09:18:22;;;;;;;19.30;9.13;;;;;;;;;;5091163;28;20036;-60
2021/12/22 09:20:48;;;;;;;18.55;8.98;;;;;;;;;;5090079;28;20055;-60
2021/12/22 09:23:15;;;;;;;18.88;9.27;;;;;;;;;;5091201;28;20032;-60
2021/12/22 09:25:41;;;;;;;20.83;9.18;;;;;;;;;;5090826;28;20036;-60
2021/12/22 09:28:09;;;;;;;15.68;8.98;;;;;;;;;;5089715;28;20038;-60
2021/12/22 09:30:36;;;;;;;13.90;8.43;;;;;;;;;;5089085;28;20049;-59
2021/12/22 09:33:06;;;;;;;17.92;8.77;;;;;;;;;;5091007;28;20055;-60
2021/12/22 09:35:32;;;;;;;18.08;8.85;;;;;;;;;;5091095;28;20043;-59
2021/12/22 09:37:58;;;;;;;17.52;8.45;;;;;;;;;;5090378;28;20093;-59
2021/12/22 09:40:24;;;;;;;17.15;9.75;;;;;;;;;;5091028;28;20036;-59
2021/12/22 09:42:50;;;;;;;17.05;9.77;;;;;;;;;;5090167;28;20036;-59
2021/12/22 09:45:19;;;;;;;16.25;8.48;;;;;;;;;;5089421;28;20058;-58
2021/12/22 09:48:00;;;;;;;16.95;8.98;;;;;;;;;;5088395;28;20039;-60
2021/12/22 09:53:05;;;;;;;17.20;9.68;;;;;;;;;;5089370;28;20043;-60
2021/12/22 09:55:33;;;;;;;17.58;9.15;;;;;;;;;;5090779;28;20036;-61
2021/12/22 09:57:59;;;;;;;17.30;9.55;;;;;;;;;;5090177;28;20123;-61
2021/12/22 10:00:25;;;;;;;17.77;9.07;;;;;;;;;;5090260;28;20039;-60
2021/12/22 10:02:51;;;;;;;18.42;9.52;;;;;;;;;;5090699;28;20046;-60
2021/12/22 10:05:17;;;;;;;16.05;9.18;;;;;;;;;;5089057;28;20036;-60
2021/12/22 10:07:44;;;;;;;14.82;8.43;;;;;;;;;;5089777;28;20032;-61
2021/12/22 10:10:11;;;;;;;18.75;9.15;;;;;;;;;;5090813;28;20486;-61
2021/12/22 10:12:39;;;;;;;17.80;8.95;;;;;;;;;;5091042;28;20075;-60
2021/12/22 10:15:06;;;;;;;16.48;9.18;;;;;;;;;;5090789;28;20047;-60
2021/12/22 10:17:32;;;;;;;15.10;9.07;;;;;;;;;;5090968;28;20448;-60
2021/12/22 10:19:59;;;;;;;17.83;9.55;;;;;;;;;;5090370;28;20046;-60
2021/12/22 10:22:33;;;;;;;14.43;8.85;;;;;;;;;;5090882;28;20039;-62
2021/12/22 10:25:07;;;;;;;16.50;9.30;;;;;;;;;;5088551;28;20056;-60
2021/12/22 10:27:33;;;;;;;23.70;9.45;;;;;;;;;;5090584;28;20406;-61
2021/12/22 10:29:59;;;;;;;19.38;9.13;;;;;;;;;;5088256;28;20070;-59
2021/12/22 10:32:25;;;;;;;15.57;9.48;;;;;;;;;;5092662;28;20497;-59
2021/12/22 10:34:55;;;;;;;14.82;8.35;;;;;;;;;;5094278;28;20040;-59
2021/12/22 10:37:31;;;;;;;16.17;9.23;;;;;;;;;;5093852;28;20072;-59
2021/12/22 10:39:57;;;;;;;16.02;9.13;;;;;;;;;;5094023;28;20494;-59
2021/12/22 10:42:38;;;;;;;16.83;8.75;;;;;;;;;;5093908;28;20032;-61
2021/12/22 10:45:14;;;;;;;19.92;8.98;;;;;;;;;;5094378;28;20036;-61
2021/12/22 10:50:33;;;;;;;18.58;9.25;;;;;;;;;;5094289;28;20044;-61
2021/12/22 10:53:00;;;;;;;20.38;9.93;;;;;;;;;;5092322;28;20368;-60
2021/12/22 10:55:35;;;;;;;17.70;9.30;;;;;;;;;;5094041;28;20076;-61
2021/12/22 10:58:01;;;;;;;16.02;9.40;;;;;;;;;;5093340;28;20427;-60
2021/12/22 11:00:27;;;;;;;14.93;8.65;;;;;;;;;;5094147;28;20079;-61
2021/12/22 11:03:03;;;;;;;14.00;8.68;;;;;;;;;;5094024;28;20040;-60
2021/12/22 11:05:30;;;;;;;17.80;9.15;;;;;;;;;;5094007;28;20040;-60
2021/12/22 11:07:56;;;;;;;17.17;9.27;;;;;;;;;;5093932;28;20059;-61
2021/12/22 11:10:27;;;;;;;20.02;9.25;;;;;;;;;;5094102;28;20409;-60
2021/12/22 11:13:00;;;;;;;15.07;8.77;;;;;;;;;;5092547;28;20036;-60
2021/12/22 11:15:26;;;;;;;16.40;9.10;;;;;;;;;;5092642;28;20406;-60
2021/12/22 11:17:52;;;;;;;16.40;9.00;;;;;;;;;;5093106;28;20035;-59
2021/12/22 11:20:22;;;;;;;15.77;9.10;;;;;;;;;;5093122;28;20032;-61
2021/12/22 11:23:00;;;;;;;15.25;8.65;;;;;;;;;;5093186;28;20122;-60
2021/12/22 11:25:26;;;;;;;14.73;8.90;;;;;;;;;;5093304;28;20079;-61
2021/12/22 11:27:53;;;;;;;15.63;8.25;;;;;;;;;;5094303;28;20051;-60
2021/12/22 11:30:20;;;;;;;15.13;8.95;;;;;;;;;;5093688;28;20402;-60
2021/12/22 11:32:47;;;;;;;14.73;8.93;;;;;;;;;;5089567;28;20071;-60
2021/12/22 11:35:14;;;;;;;16.75;9.45;;;;;;;;;;5092862;28;20079;-60
2021/12/22 11:37:40;;;;;;;17.30;9.27;;;;;;;;;;5092701;28;20050;-61
2021/12/22 11:40:09;;;;;;;22.23;9.93;;;;;;;;;;5092525;28;20483;-60
2021/12/22 11:42:38;;;;;;;15.77;8.55;;;;;;;;;;5092238;28;20044;-60
2021/12/22 11:45:13;;;;;;;17.27;9.82;;;;;;;;;;5092690;28;20050;-60
2021/12/22 11:47:44;;;;;;;17.98;9.88;;;;;;;;;;5092894;28;20059;-59
2021/12/22 11:50:16;;;;;;;15.35;8.82;;;;;;;;;;5093288;28;20042;-59
2021/12/22 11:52:43;;;;;;;14.77;9.10;;;;;;;;;;5092930;28;20069;-61
2021/12/22 11:55:17;;;;;;;14.48;8.80;;;;;;;;;;5093352;28;20100;-59
2021/12/22 11:57:44;;;;;;;17.55;8.82;;;;;;;;;;5092655;28;20075;-60
2021/12/22 12:00:30;;;;;;;18.23;9.43;;;;;;;;;;5093308;28;20028;-59
2021/12/22 12:03:34;;;;;;;13.57;8.70;;;1.90;99.90;;;;;;5092880;28;20169;-60
2021/12/22 12:06:12;;;;;;;18.17;9.07;;;;;;;;;;5092799;28;20115;-61
2021/12/22 12:08:51;;;;;;;18.00;9.85;;;;;;;;;;5092458;28;20074;-60
2021/12/22 12:11:19;;;;;;;17.48;9.57;;;;;;;;;;5092846;28;20123;-60
2021/12/22 12:13:53;;;;;;;16.88;9.25;;;;;;;;;;5091762;28;20055;-60
2021/12/22 12:21:52;;;;;;;15.57;8.90;;;;;;;;;;5092265;28;20036;-60
2021/12/22 12:24:33;;;;;;;15.02;8.82;;;;;;;;;;5092116;28;20036;-60
2021/12/22 12:27:00;;;;;;;14.32;7.97;;;;;;;;;;5090856;28;20036;-59
2021/12/22 12:29:45;;;;;;;16.60;9.27;;;;;;;;;;5091165;28;20123;-60
2021/12/22 12:32:31;;;;;;;14.52;8.68;;;;;;;;;;5089875;28;20043;-60
2021/12/22 12:35:15;;;;;;;13.82;9.23;;;;;;;;;;5092006;28;20039;-61
2021/12/22 12:38:08;;;;;;;17.48;9.20;;;2.90;99.90;;;;;;5092377;28;20044;-60
2021/12/22 12:40:52;;;;;;;19.43;8.50;;;;;;;;;;5091915;28;20491;-60
2021/12/22 12:43:18;;;;;;;17.35;8.60;;;;;;;;;;5090591;28;20415;-61
2021/12/22 12:45:48;;;;;;;17.08;8.93;;;;;;;;;;5091502;28;20048;-60
2021/12/22 12:48:27;;;;;;;15.55;8.68;;;;;;;;;;5090537;28;20046;-61
2021/12/22 12:51:13;;;;;;;14.93;8.77;;;3.60;99.90;;;;;;5092005;28;20119;-60
2021/12/22 12:53:59;;;;;;;13.73;8.48;;;;;;;;;;5090358;28;20032;-60
2021/12/22 12:56:31;;;;;;;19.30;8.80;;;;;;;;;;5091150;28;20036;-60
2021/12/22 12:58:57;;;;;;;15.93;8.55;;;;;;;;;;5091507;28;20032;-60
2021/12/22 13:01:52;;;;;;;15.00;9.10;;;;;;;;;;5090326;28;20043;-60
2021/12/22 13:04:27;;;;;;;17.23;9.48;;;;;;;;;;5029765;28;20107;-60
2021/12/22 13:06:55;;;;;;;15.40;8.98;;;;;;;;;;5029207;28;20029;-60
2021/12/22 13:09:21;;;;;;;15.93;8.90;;;;;;;;;;5028998;28;20404;-60
2021/12/22 13:11:56;;;;;;;14.40;9.20;;;;;;;;;;5036037;28;20563;-60
2021/12/22 13:17:12;;;;;;;16.27;8.43;;;;;;;;;;5026510;28;20045;-63
2021/12/22 13:19:47;;;;;;;16.67;9.00;;;;;;;;;;5028620;28;20037;-62
2021/12/22 13:22:17;;;;;;;14.95;9.25;;;;;;;;;;5028416;28;20060;-62
2021/12/22 13:24:43;;;;;;;14.38;8.65;;;;;;;;;;5030393;28;20049;-61
2021/12/22 13:27:09;;;;;;;15.20;8.65;;;;;;;;;;5028582;28;20029;-61
2021/12/22 13:29:36;;;;;;;16.08;8.77;;;;;;;;;;5028802;28;20543;-61
2021/12/22 13:32:09;;;;;;;15.35;9.00;;;;;;;;;;5031353;28;20132;-60
2021/12/22 13:34:44;;;;;;;16.90;9.77;;;;;;;;;;5028934;28;20056;-61
2021/12/22 13:37:10;;;;;;;15.93;9.02;;;;;;;;;;5029065;28;20127;-60
2021/12/22 13:39:44;;;;;;;13.85;9.00;;;;;;;;;;5025133;28;20114;-61
2021/12/22 13:42:10;;;;;;;14.93;9.15;;;;;;;;;;5077927;28;20055;-60
2021/12/22 13:44:39;;;;;;;15.80;9.02;;;;;;;;;;5090910;28;20395;-60
2021/12/22 13:47:06;;;;;;;16.27;9.27;;;;;;;;;;5088583;28;20094;-61
2021/12/22 13:49:32;;;;;;;17.10;8.77;;;;;;;;;;5090921;28;20454;-60
2021/12/22 13:51:58;;;;;;;16.13;8.63;;;;;;;;;;5090850;28;20028;-61
2021/12/22 13:54:29;;;;;;;16.60;9.23;;;;;;;;;;5090308;28;20065;-62
2021/12/22 13:57:03;;;;;;;16.05;9.63;;;;;;;;;;5090492;28;20093;-61
2021/12/22 13:59:30;;;;;;;16.67;9.20;;;;;;;;;;5090688;28;20028;-61
2021/12/22 14:01:57;;;;;;;16.08;8.80;;;;;;;;;;5090692;28;20067;-60
2021/12/22 14:04:28;;;;;;;19.95;10.35;;;;;;;;;;5090497;28;20043;-60
2021/12/22 14:06:55;;;;;;;17.63;9.63;;;;;;;;;;5089619;28;20036;-60
2021/12/22 14:09:23;;;;;;;17.27;9.52;;;;;;;;;;5090453;28;20139;-60
2021/12/22 14:11:55;;;;;;;17.70;9.65;;;;;;;;;;5090389;28;20040;-61
2021/12/22 14:14:23;;;;;;;13.57;8.10;;;;;;;;;;5090390;28;20038;-59
2021/12/22 14:16:51;;;;;;;16.58;9.45;;;;;;;;;;5089857;28;20097;-60
2021/12/22 14:19:20;;;;;;;14.60;9.13;;;;;;;;;;5090351;28;20096;-60
2021/12/22 14:21:50;;;;;;;16.13;9.32;;;;;;;;;;5090071;28;20054;-59
2021/12/22 14:24:32;;;;;;;15.50;9.18;;;;;;;;;;5090391;28;20051;-59
2021/12/22 14:27:00;;;;;;;16.58;10.13;;;;;;;;;;5089480;28;20040;-59
2021/12/22 14:29:27;;;;;;;20.63;9.48;;;;;;;;;;5090511;28;20071;-60
2021/12/22 14:32:03;;;;;;;16.05;8.88;;;;;;;;;;5089381;28;20466;-60
2021/12/22 14:34:30;;;;;;;18.60;9.50;;;;;;;;;;5089104;28;20123;-58
2021/12/22 14:36:57;;;;;;;14.90;9.27;;;;;;;;;;5089545;28;20122;-60
2021/12/22 14:39:39;;;;;;;18.00;8.85;;;;;;;;;;5090315;28;20387;-59
2021/12/22 14:42:23;;;;;;;19.38;10.00;;;;;;;;;;5088695;28;20048;-59
2021/12/22 14:44:50;;;;;;;16.15;9.25;;;;;;;;;;5089822;28;20076;-59
2021/12/22 14:47:22;;;;;;;15.25;8.93;;;;;;;;;;5090144;28;20067;-60
2021/12/22 14:49:50;;;;;;;17.15;9.85;;;;;;;;;;5087224;28;20097;-62
2021/12/22 14:52:19;;;;;;;16.27;9.20;;;;;;;;;;5090079;28;20043;-59
2021/12/22 14:54:45;;;;;;;19.38;9.60;;;;;;;;;;5090052;28;20047;-61
2021/12/22 14:57:22;;;;;;;17.17;9.68;;;;;;;;;;5086521;28;20044;-62
2021/12/22 14:59:48;;;;;;;16.67;9.30;;;;;;;;;;5088423;28;20040;-61
2021/12/22 15:02:14;;;;;;;14.43;8.52;;;;;;;;;;5089986;28;20048;-61
2021/12/22 15:04:40;;;;;;;20.05;10.52;;;;;;;;;;5089657;28;20409;-60